^^
Datos históricos de la estación: Murcia-Puente Tocinos
Diario Informe para Septiembre 23, 2021 Unidades:  Métrico    Ingés   Ambas
Diario Semanal Mensual Anual
  Máxima: Mínima: Promedio:
Temperatura: 19.2 °C 5.6 °C 13 °C
Punto de rocio: 7.7 °C 1.3 °C 2.8 °C
Humedad: 76% 32% 52%
Velocidad viento: 21.5km/h 0km/h 6.6km/h
Racha viento: 45.1km/h - -
Viento- - SSO
Presión: 1017.2 hPa 1008.2 hPa -
Precipitación: 0.0 mm    
 
 
Tabla de datos para Septiembre 23, 2021
Hora Temperatura Punto de rocio Presión Viento Velocidad viento Racha viento Humedad Intensidad lluvia(por hora) Nubes
00:04 13.4 °C 2.3 °C 1015.5 hPa SSO 5 km/h 9.5 km/h 47% 0.0 mm
00:09 13.4 °C 2.3 °C 1015.8 hPa SO 5 km/h 11.1 km/h 47% 0.0 mm
00:14 13.4 °C 2.3 °C 1015.8 hPa SO 5 km/h 11.3 km/h 47% 0.0 mm
00:19 13.4 °C 2.3 °C 1015.8 hPa SO 5 km/h 6.4 km/h 47% 0.0 mm
00:24 13.3 °C 2.2 °C 1016.0 hPa SSO 5 km/h 7.4 km/h 47% 0.0 mm
00:29 13.3 °C 2.3 °C 1016.0 hPa Sur 4.1 km/h 8 km/h 47.5% 0.0 mm
00:34 13.2 °C 2.4 °C 1016.0 hPa SSE 3.9 km/h 9.5 km/h 48% 0.0 mm
00:39 13 °C 2.3 °C 1016.2 hPa SSE 5.3 km/h 9.7 km/h 48% 0.0 mm
00:44 12.9 °C 2.1 °C 1016.2 hPa OSO 5.8 km/h 9.7 km/h 48% 0.0 mm
00:49 12.8 °C 2.1 °C 1016.2 hPa SSO 4.2 km/h 9.3 km/h 48% 0.0 mm
00:54 12.8 °C 2.1 °C 1016.2 hPa SSE 3.9 km/h 9.7 km/h 48% 0.0 mm
00:59 12.9 °C 2.2 °C 1016.2 hPa SO 4.5 km/h 8 km/h 48.2% 0.0 mm
01:04 12.7 °C 2.1 °C 1016.2 hPa Oeste 4.6 km/h 8 km/h 48.5% 0.0 mm
01:09 12.7 °C 2 °C 1016.2 hPa ONO 3.3 km/h 5.8 km/h 48.2% 0.0 mm
01:14 12.6 °C 2.2 °C 1016.1 hPa NNO 2.9 km/h 7.6 km/h 49.3% 0.0 mm
01:19 12.2 °C 2.2 °C 1016.1 hPa NNO 3.7 km/h 8 km/h 50.3% 0.0 mm
01:24 12.1 °C 2.3 °C 1016.1 hPa NNO 3.9 km/h 8 km/h 51% 0.0 mm
01:29 12 °C 2.2 °C 1016.1 hPa North 4.5 km/h 8 km/h 51.1% 0.0 mm
01:34 11.8 °C 2.3 °C 1016.1 hPa NE 4.7 km/h 8 km/h 52% 0.0 mm
01:39 11.5 °C 2.4 °C 1016.4 hPa Este 4 km/h 14.8 km/h 53.4% 0.0 mm
01:44 11 °C 2.2 °C 1016.4 hPa ENE 3.9 km/h 14.5 km/h 54.8% 0.0 mm
01:49 11 °C 2.1 °C 1016.4 hPa NE 5.8 km/h 9.7 km/h 54% 0.0 mm
01:54 11.1 °C 2.3 °C 1016.4 hPa ENE 6.5 km/h 8 km/h 54.8% 0.0 mm
01:59 10.9 °C 2.2 °C 1016.3 hPa ESE 4.3 km/h 8 km/h 55% 0.0 mm
02:04 10.9 °C 2.2 °C 1016.3 hPa ESE 3.9 km/h 6.4 km/h 55% 0.0 mm
02:09 10.8 °C 2.2 °C 1016.4 hPa SSO 3.3 km/h 7.6 km/h 55.6% 0.0 mm
02:14 10.6 °C 2.2 °C 1016.4 hPa Oeste 3.2 km/h 8 km/h 56.3% 0.0 mm
02:19 10.4 °C 2.3 °C 1016.4 hPa Oeste 3.2 km/h 8 km/h 57% 0.0 mm
02:24 10.3 °C 2.4 °C 1016.4 hPa NNO 3.2 km/h 7.4 km/h 57.8% 0.0 mm
02:29 10.1 °C 2.2 °C 1016.3 hPa NE 3.7 km/h 9.5 km/h 58% 0.0 mm
02:34 9.9 °C 2.2 °C 1016.3 hPa NNO 3.9 km/h 10 km/h 58.7% 0.0 mm
02:39 9.6 °C 2.3 °C 1016.3 hPa SO 4.8 km/h 9.7 km/h 60.2% 0.0 mm
02:44 9.5 °C 2.3 °C 1016.3 hPa Este 5 km/h 8 km/h 61% 0.0 mm
02:49 9.5 °C 2.3 °C 1016.3 hPa SSO 4.2 km/h 13 km/h 61% 0.0 mm
02:54 9.3 °C 2.3 °C 1016.4 hPa Oeste 3.9 km/h 12.9 km/h 61.6% 0.0 mm
02:59 9 °C 2.4 °C 1016.4 hPa SO 5.4 km/h 11.3 km/h 62.9% 0.0 mm
03:04 8.9 °C 2.2 °C 1016.4 hPa OSO 5.8 km/h 8.4 km/h 63% 0.0 mm
03:09 9 °C 2.3 °C 1016.4 hPa OSO 4.9 km/h 8 km/h 63% 0.0 mm
03:14 9.1 °C 2.5 °C 1016.2 hPa SSO 4.7 km/h 8 km/h 63% 0.0 mm
03:19 9.2 °C 2.5 °C 1016.2 hPa ENE 3.5 km/h 7.6 km/h 63% 0.0 mm
03:24 9.1 °C 2.4 °C 1016.3 hPa ENE 3.2 km/h 9.5 km/h 63% 0.0 mm
03:29 8.8 °C 2.2 °C 1016.3 hPa Este 4.4 km/h 9.7 km/h 63.1% 0.0 mm
03:34 8.7 °C 2.3 °C 1016.3 hPa Este 4.7 km/h 8 km/h 64% 0.0 mm
03:39 8.6 °C 2.1 °C 1016.5 hPa ESE 4.1 km/h 8.4 km/h 64% 0.0 mm
03:44 8.4 °C 2 °C 1016.5 hPa ESE 3.9 km/h 8 km/h 64% 0.0 mm
03:49 8.4 °C 2 °C 1016.5 hPa ESE 3.1 km/h 4.8 km/h 64% 0.0 mm
03:54 8.4 °C 2 °C 1016.5 hPa ESE 2.9 km/h 5.6 km/h 64% 0.0 mm
03:59 8.5 °C 2.1 °C 1016.4 hPa SSO 2.4 km/h 8.4 km/h 64% 0.0 mm
04:04 8.6 °C 2.2 °C 1016.4 hPa OSO 2.2 km/h 8 km/h 64% 0.0 mm
04:09 8.7 °C 2.2 °C 1016.4 hPa OSO 3.6 km/h 8 km/h 63.7% 0.0 mm
04:14 8.8 °C 2.1 °C 1016.3 hPa OSO 3.9 km/h 6.4 km/h 63% 0.0 mm
04:19 8.9 °C 2.2 °C 1016.3 hPa Sur 3.1 km/h 7.4 km/h 63% 0.0 mm
04:24 8.8 °C 2 °C 1016.3 hPa Este 2.9 km/h 9.3 km/h 62.2% 0.0 mm
04:29 8.5 °C 1.8 °C 1016.2 hPa SE 5.1 km/h 10.3 km/h 62.5% 0.0 mm
04:34 8.3 °C 1.7 °C 1016.2 hPa SE 5.8 km/h 10 km/h 63.4% 0.0 mm
04:39 8.2 °C 1.8 °C 1016.2 hPa SSE 5.8 km/h 9.7 km/h 64.3% 0.0 mm
04:44 8.1 °C 1.9 °C 1016.1 hPa Sur 5.8 km/h 10 km/h 64.9% 0.0 mm
04:49 8.2 °C 1.8 °C 1016.1 hPa Sur 5.8 km/h 9.7 km/h 64% 0.0 mm
04:54 8.1 °C 1.8 °C 1016.2 hPa Este 5.8 km/h 8.7 km/h 64.7% 0.0 mm
04:59 7.8 °C 1.8 °C 1016.2 hPa NO 4.2 km/h 9.7 km/h 65.7% 0.0 mm
05:04 7.6 °C 1.9 °C 1016.2 hPa Este 3.9 km/h 9.7 km/h 67% 0.0 mm
05:09 7.4 °C 1.9 °C 1016.2 hPa NO 3.4 km/h 8 km/h 67.9% 0.0 mm
05:14 7.3 °C 1.9 °C 1016.2 hPa NO 3.2 km/h 3.7 km/h 68.9% 0.0 mm
05:19 7.2 °C 2 °C 1016.2 hPa NO 2.5 km/h 3.9 km/h 69.8% 0.0 mm
05:24 7.1 °C 2.1 °C 1016.2 hPa NO 2.2 km/h 5.6 km/h 70.7% 0.0 mm
05:29 7.1 °C 2.2 °C 1016.0 hPa NO 2.2 km/h 4.8 km/h 71% 0.0 mm
05:34 7.1 °C 2.2 °C 1016.0 hPa NO 2.2 km/h 3.7 km/h 71% 0.0 mm
05:39 7.1 °C 2.2 °C 1016.0 hPa NO 0.4 km/h 3.2 km/h 71.3% 0.0 mm
05:44 7.1 °C 2.4 °C 1016.0 hPa Calm   5.6 km/h 71.9% 0.0 mm
05:49 7.1 °C 2.4 °C 1016.0 hPa Calm   7.4 km/h 72% 0.0 mm
05:54 7.1 °C 2.3 °C 1016.0 hPa Calm   8 km/h 71.6% 0.0 mm
05:59 7.1 °C 2.3 °C 1016.0 hPa Oeste 3.6 km/h 8 km/h 71.6% 0.0 mm
06:04 7 °C 2.3 °C 1016.0 hPa NO 4.7 km/h 8 km/h 72% 0.0 mm
06:09 6.9 °C 2.2 °C 1016.1 hPa NO 3.5 km/h 8 km/h 72% 0.0 mm
06:14 6.7 °C 2.1 °C 1016.1 hPa NO 3.2 km/h 4.8 km/h 72.2% 0.0 mm
06:19 6.7 °C 2.2 °C 1016.1 hPa NO 2.4 km/h 4.7 km/h 73% 0.0 mm
06:24 6.7 °C 2.2 °C 1016.2 hPa NO 2.2 km/h 9.3 km/h 73% 0.0 mm
06:29 6.6 °C 2.1 °C 1016.2 hPa SE 4.2 km/h 11.1 km/h 73% 0.0 mm
06:34 6.4 °C 1.9 °C 1016.2 hPa SE 4.7 km/h 11.3 km/h 73% 0.0 mm
06:39 6.4 °C 1.9 °C 1016.4 hPa SSE 6 km/h 10 km/h 73% 0.0 mm
06:44 6.4 °C 1.9 °C 1016.4 hPa SSE 6.5 km/h 9.7 km/h 73% 0.0 mm
06:49 6.4 °C 1.9 °C 1016.4 hPa SE 5.4 km/h 9.7 km/h 73% 0.0 mm
06:54 6.4 °C 1.9 °C 1016.4 hPa SE 5 km/h 8 km/h 73% 0.0 mm
06:59 6.4 °C 1.7 °C 1016.4 hPa SSE 5 km/h 8.7 km/h 72% 0.0 mm
07:04 6.3 °C 1.8 °C 1016.4 hPa SO 5 km/h 8 km/h 72.8% 0.0 mm
07:09 6.3 °C 1.8 °C 1016.4 hPa SSE 4.1 km/h 8 km/h 73% 0.0 mm
07:14 6.4 °C 1.9 °C 1016.3 hPa SE 3.9 km/h 8 km/h 73% 0.0 mm
07:19 6.4 °C 1.9 °C 1016.3 hPa ESE 3.9 km/h 4.7 km/h 73% 0.0 mm
07:24 6.5 °C 2 °C 1016.5 hPa SSE 3.9 km/h 4.8 km/h 73% 0.0 mm
07:29 6.4 °C 1.9 °C 1016.5 hPa SSO 2.6 km/h 8.7 km/h 73% 0.0 mm
07:34 6.3 °C 1.7 °C 1016.5 hPa NO 2.2 km/h 9.7 km/h 72.1% 0.0 mm
07:39 6.2 °C 1.7 °C 1016.6 hPa ONO 3.4 km/h 9.7 km/h 73.2% 0.0 mm
07:44 5.9 °C 1.7 °C 1016.6 hPa ONO 3.9 km/h 8 km/h 74% 0.0 mm
07:49 5.8 °C 1.7 °C 1016.6 hPa NO 3.1 km/h 5.8 km/h 74.7% 0.0 mm
07:54 5.7 °C 1.6 °C 1016.8 hPa NO 2.9 km/h 6.4 km/h 75% 0.0 mm
07:59 5.7 °C 1.8 °C 1016.8 hPa NO 2.4 km/h 4.7 km/h 75.9% 0.0 mm
08:04 5.7 °C 1.8 °C 1016.8 hPa ENE 2.2 km/h 5.6 km/h 76% 0.0 mm
08:09 5.7 °C 1.8 °C 1016.9 hPa ENE 2.8 km/h 4.8 km/h 76% 0.0 mm
08:14 5.7 °C 1.8 °C 1016.9 hPa Este 2.9 km/h 9.3 km/h 76% 0.0 mm
08:19 5.7 °C 1.7 °C 1016.9 hPa SSE 3.1 km/h 10 km/h 75.3% 0.0 mm
08:24 5.8 °C 1.7 °C 1016.9 hPa SSE 3.2 km/h 9.7 km/h 75% 0.0 mm
08:29 5.8 °C 1.6 °C 1016.8 hPa SSE 6 km/h 11.1 km/h 74.5% 0.0 mm
08:34 5.7 °C 1.5 °C 1016.8 hPa SSE 6.9 km/h 11.3 km/h 74% 0.0 mm
08:39 5.7 °C 1.4 °C 1016.9 hPa SSE 6.9 km/h 11.1 km/h 74% 0.0 mm
08:44 5.7 °C 1.4 °C 1016.9 hPa SE 6.9 km/h 11.9 km/h 74% 0.0 mm
08:49 5.6 °C 1.3 °C 1016.9 hPa SE 7.4 km/h 13 km/h 74% 0.0 mm
08:54 5.6 °C 1.5 °C 1016.9 hPa SSE 7.6 km/h 12.9 km/h 74.9% 0.0 mm
08:59 5.7 °C 1.6 °C 1016.8 hPa Sur 7.1 km/h 11.3 km/h 75% 0.0 mm
09:04 5.7 °C 1.7 °C 1016.8 hPa SSO 6.9 km/h 9.7 km/h 75% 0.0 mm
09:09 5.8 °C 1.8 °C 1016.8 hPa Sur 6.1 km/h 9.7 km/h 75% 0.0 mm
09:14 6.1 °C 1.9 °C 1016.8 hPa Sur 5.8 km/h 7.4 km/h 74.5% 0.0 mm
09:19 6.3 °C 2 °C 1016.8 hPa SSE 4.9 km/h 8 km/h 74% 0.0 mm
09:24 6.5 °C 2.1 °C 1017.0 hPa SSO 4.7 km/h 6.4 km/h 73.3% 0.0 mm
09:29 6.8 °C 2.2 °C 1017.0 hPa SSO 3.5 km/h 6.4 km/h 72.6% 0.0 mm
09:34 7 °C 2.2 °C 1017.0 hPa SSO 3.2 km/h 6.4 km/h 71.7% 0.0 mm
09:39 7.2 °C 2.3 °C 1017.0 hPa SSE 3 km/h 8.4 km/h 70.9% 0.0 mm
09:44 7.4 °C 2.2 °C 1017.0 hPa SE 2.9 km/h 11.1 km/h 69.4% 0.0 mm
09:49 7.7 °C 2.3 °C 1017.0 hPa SE 5.1 km/h 11.3 km/h 68.7% 0.0 mm
09:54 7.7 °C 2 °C 1017.0 hPa SSE 5.8 km/h 11.3 km/h 67.4% 0.0 mm
09:59 7.7 °C 2.2 °C 1016.9 hPa Sur 6.7 km/h 11.3 km/h 68% 0.0 mm
10:04 7.8 °C 2.3 °C 1016.9 hPa Sur 6.9 km/h 8.4 km/h 67.7% 0.0 mm
10:09 8.1 °C 2.4 °C 1016.9 hPa Sur 5.3 km/h 8 km/h 67.3% 0.0 mm
10:14 8.4 °C 2.5 °C 1016.9 hPa Sur 5 km/h 8 km/h 66.5% 0.0 mm
10:19 8.8 °C 2.5 °C 1016.9 hPa SSO 3.6 km/h 8.4 km/h 64.8% 0.0 mm
10:24 9.1 °C 2.5 °C 1016.9 hPa SSE 3.2 km/h 8 km/h 63.7% 0.0 mm
10:29 9.3 °C 2.5 °C 1016.9 hPa Sur 4.6 km/h 8.4 km/h 62.4% 0.0 mm
10:34 9.7 °C 2.5 °C 1016.9 hPa Sur 5 km/h 9.5 km/h 61.3% 0.0 mm
10:39 9.8 °C 2.4 °C 1017.2 hPa SSO 5 km/h 9.7 km/h 60% 0.0 mm
10:44 10 °C 2.3 °C 1017.2 hPa SO 5 km/h 9.3 km/h 58.5% 0.0 mm
10:49 10.1 °C 2.1 °C 1017.2 hPa SO 4.7 km/h 9.7 km/h 57.5% 0.0 mm
10:54 10.2 °C 2 °C 1017.2 hPa SSO 4.7 km/h 10 km/h 56.8% 0.0 mm
10:59 10.3 °C 1.9 °C 1017.1 hPa Sur 4.9 km/h 9.7 km/h 56% 0.0 mm
11:04 10.6 °C 2.1 °C 1017.1 hPa SSE 5 km/h 9.7 km/h 56% 0.0 mm
11:09 10.8 °C 2.3 °C 1017.1 hPa Sur 5.6 km/h 10.3 km/h 55.9% 0.0 mm
11:14 11.1 °C 2.3 °C 1017.0 hPa SSE 5.8 km/h 11.1 km/h 54.7% 0.0 mm
11:19 11.2 °C 2.2 °C 1017.0 hPa SSE 6.3 km/h 11.1 km/h 54% 0.0 mm
11:24 11.2 °C 2.4 °C 1017.0 hPa Sur 6.5 km/h 11.3 km/h 54.6% 0.0 mm
11:29 11.3 °C 2.5 °C 1016.8 hPa Sur 6.8 km/h 9.7 km/h 54.4% 0.0 mm
11:34 11.5 °C 2.5 °C 1016.8 hPa SSE 6.9 km/h 9.7 km/h 53.7% 0.0 mm
11:39 11.8 °C 2.5 °C 1017.1 hPa Sur 5.1 km/h 8 km/h 53% 0.0 mm
11:44 12.1 °C 2.7 °C 1017.1 hPa SSE 4.7 km/h 8 km/h 52.6% 0.0 mm
11:49 12.5 °C 2.6 °C 1017.1 hPa SO 2.7 km/h 7.4 km/h 51.1% 0.0 mm
11:54 12.7 °C 2.5 °C 1017.1 hPa OSO 2.3 km/h 7.6 km/h 50% 0.0 mm
11:59 12.7 °C 2.6 °C 1016.9 hPa Oeste 3.6 km/h 9.5 km/h 50% 0.0 mm
12:04 12.7 °C 2.6 °C 1016.9 hPa ONO 3.9 km/h 9.7 km/h 50% 0.0 mm
12:09 12.9 °C 2.7 °C 1016.9 hPa NO 4.7 km/h 9.7 km/h 50.1% 0.0 mm
12:14 13.3 °C 3 °C 1016.6 hPa NNO 5 km/h 8 km/h 49.6% 0.0 mm
12:19 13.7 °C 2.9 °C 1016.6 hPa OSO 3.4 km/h 7.6 km/h 48.1% 0.0 mm
12:24 13.9 °C 3 °C 1016.6 hPa NNO 2.9 km/h 8 km/h 47.9% 0.0 mm
12:29 14.2 °C 3 °C 1016.5 hPa NO 3.1 km/h 7.4 km/h 46.9% 0.0 mm
12:34 14.4 °C 2.9 °C 1016.5 hPa NO 3.2 km/h 8 km/h 46% 0.0 mm
12:39 14.8 °C 3.3 °C 1016.5 hPa NO 3 km/h 4.8 km/h 46% 0.0 mm
12:44 15.3 °C 3.4 °C 1016.3 hPa NNE 2.9 km/h 5.6 km/h 45% 0.0 mm
12:49 15.7 °C 3.2 °C 1016.3 hPa ENE 2.4 km/h 5.8 km/h 43.1% 0.0 mm
12:54 16.1 °C 3.1 °C 1016.3 hPa SSO 2.2 km/h 6.4 km/h 41.8% 0.0 mm
12:59 16.3 °C 2.9 °C 1016.0 hPa Sur 2.2 km/h 10.3 km/h 40.6% 0.0 mm
13:04 16.4 °C 2.8 °C 1016.0 hPa SO 2.2 km/h 11.9 km/h 40% 0.0 mm
13:09 16.2 °C 2.6 °C 1016.0 hPa Sur 4.3 km/h 11.3 km/h 40% 0.0 mm
13:14 16.3 °C 2.7 °C 1015.5 hPa SSO 5 km/h 9.7 km/h 40% 0.0 mm
13:19 16.5 °C 2.6 °C 1015.5 hPa OSO 3.5 km/h 9.5 km/h 39.4% 0.0 mm
13:24 16.4 °C 2.4 °C 1015.5 hPa Oeste 3.2 km/h 16.7 km/h 39% 0.0 mm
13:29 16.3 °C 2.4 °C 1015.3 hPa OSO 4.7 km/h 16.1 km/h 39.3% 0.0 mm
13:34 16.3 °C 2.4 °C 1015.3 hPa SE 5 km/h 10 km/h 39.2% 0.0 mm
13:39 16.5 °C 2.5 °C 1015.3 hPa ESE 4.7 km/h 9.7 km/h 39% 0.0 mm
13:44 16.7 °C 2.6 °C 1014.9 hPa SSO 4.7 km/h 9.5 km/h 39% 0.0 mm
13:49 16.7 °C 2.5 °C 1014.9 hPa OSO 4.6 km/h 10 km/h 38.7% 0.0 mm
13:54 16.7 °C 2.5 °C 1014.9 hPa SO 4.7 km/h 9.7 km/h 38.8% 0.0 mm
13:59 16.8 °C 2.4 °C 1014.6 hPa Sur 3.6 km/h 10 km/h 38% 0.0 mm
14:04 16.8 °C 2.4 °C 1014.6 hPa SO 3.2 km/h 9.7 km/h 38% 0.0 mm
14:09 16.9 °C 2.5 °C 1014.6 hPa North 3.7 km/h 9.7 km/h 38% 0.0 mm
14:14 17.1 °C 2.5 °C 1014.2 hPa OSO 3.9 km/h 13.7 km/h 37.6% 0.0 mm
14:19 17.1 °C 2.2 °C 1014.2 hPa Oeste 4.7 km/h 14 km/h 37% 0.0 mm
14:24 16.8 °C 2 °C 1014.2 hPa Oeste 5 km/h 14.8 km/h 37% 0.0 mm
14:29 16.8 °C 2.1 °C 1014.0 hPa ONO 7.6 km/h 14.5 km/h 37.3% 0.0 mm
14:34 16.8 °C 2.4 °C 1014.0 hPa North 8.4 km/h 11.3 km/h 38% 0.0 mm
14:39 16.9 °C 2.2 °C 1014.0 hPa ONO 5.8 km/h 9.7 km/h 37.2% 0.0 mm
14:44 17 °C 2.2 °C 1013.7 hPa NNO 5 km/h 10.3 km/h 37% 0.0 mm
14:49 17.1 °C 2.3 °C 1013.7 hPa NNO 4.7 km/h 11.3 km/h 37% 0.0 mm
14:54 17.1 °C 2.3 °C 1013.7 hPa NE 4.7 km/h 11.3 km/h 37% 0.0 mm
14:59 17.2 °C 2.2 °C 1013.6 hPa NNE 4.7 km/h 9.7 km/h 36.6% 0.0 mm
15:04 17.3 °C 2.2 °C 1013.6 hPa ENE 4.7 km/h 9.3 km/h 36.3% 0.0 mm
15:09 17.4 °C 2.2 °C 1013.6 hPa NNE 4 km/h 9.7 km/h 36.1% 0.0 mm
15:14 17.4 °C 2.2 °C 1013.0 hPa NNE 3.9 km/h 9.5 km/h 36% 0.0 mm
15:19 17.4 °C 2.2 °C 1013.0 hPa NNE 4.7 km/h 9.7 km/h 36% 0.0 mm
15:24 17.4 °C 2.2 °C 1013.0 hPa North 5 km/h 9.7 km/h 36% 0.0 mm
15:29 17.5 °C 2.2 °C 1012.8 hPa ESE 4.7 km/h 8 km/h 36% 0.0 mm
15:34 17.6 °C 2.3 °C 1012.8 hPa ENE 4.7 km/h 9.3 km/h 36% 0.0 mm
15:39 17.7 °C 2.4 °C 1012.8 hPa Este 4.7 km/h 9.7 km/h 36% 0.0 mm
15:44 17.7 °C 2.4 °C 1012.7 hPa Este 4.7 km/h 9.7 km/h 35.8% 0.0 mm
15:49 17.8 °C 2.4 °C 1012.7 hPa ESE 4 km/h 8 km/h 35.8% 0.0 mm
15:54 17.9 °C 2.3 °C 1012.7 hPa ESE 3.9 km/h 7.6 km/h 35.1% 0.0 mm
15:59 18 °C 2.3 °C 1012.4 hPa ESE 3.9 km/h 9.3 km/h 35% 0.0 mm
16:04 18.1 °C 2.3 °C 1012.4 hPa Este 3.9 km/h 9.7 km/h 35% 0.0 mm
16:09 18 °C 2.3 °C 1012.4 hPa NE 4.8 km/h 9.7 km/h 35% 0.0 mm
16:14 18.2 °C 2.4 °C 1012.2 hPa NNE 5 km/h 7.4 km/h 34.8% 0.0 mm
16:19 18.4 °C 2.2 °C 1012.2 hPa ONO 3.4 km/h 13.7 km/h 34% 0.0 mm
16:24 18.6 °C 2.2 °C 1012.2 hPa Oeste 2.9 km/h 13 km/h 33.5% 0.0 mm
16:29 18.7 °C 2.1 °C 1012.2 hPa OSO 4.6 km/h 13 km/h 33% 0.0 mm
16:34 18.8 °C 1.9 °C 1012.2 hPa OSO 5 km/h 12.9 km/h 32.3% 0.0 mm
16:39 18.8 °C 1.8 °C 1012.2 hPa OSO 5.6 km/h 11.1 km/h 32% 0.0 mm
16:44 18.8 °C 1.7 °C 1012.1 hPa Sur 5.8 km/h 11.9 km/h 32% 0.0 mm
16:49 18.8 °C 1.7 °C 1012.1 hPa Sur 5.8 km/h 11.3 km/h 32% 0.0 mm
16:54 18.8 °C 1.8 °C 1012.1 hPa SSO 5.8 km/h 8.7 km/h 32% 0.0 mm
16:59 18.9 °C 1.8 °C 1011.9 hPa SSE 4.3 km/h 9.7 km/h 32% 0.0 mm
17:04 18.9 °C 1.8 °C 1011.9 hPa SSO 3.9 km/h 8 km/h 32% 0.0 mm
17:09 18.9 °C 1.8 °C 1011.9 hPa Sur 3.3 km/h 8.4 km/h 32% 0.0 mm
17:14 18.9 °C 1.9 °C 1011.7 hPa SE 3.2 km/h 9.3 km/h 32.2% 0.0 mm
17:19 18.9 °C 2.3 °C 1011.7 hPa SE 4.5 km/h 9.7 km/h 33% 0.0 mm
17:24 18.8 °C 2.3 °C 1011.7 hPa SSO 5 km/h 11.1 km/h 33.2% 0.0 mm
17:29 18.9 °C 2 °C 1011.5 hPa SSO 4.7 km/h 13 km/h 32.5% 0.0 mm
17:34 19 °C 2 °C 1011.5 hPa SSO 4.7 km/h 12.9 km/h 32.2% 0.0 mm
17:39 19.1 °C 2.2 °C 1011.5 hPa SSO 6.1 km/h 11.3 km/h 32.4% 0.0 mm
17:44 19.2 °C 2.1 °C 1011.4 hPa SSO 6.5 km/h 9.7 km/h 32.1% 0.0 mm
17:49 19.2 °C 2.3 °C 1011.4 hPa SSO 5.1 km/h 11.9 km/h 32.4% 0.0 mm
17:54 19.1 °C 2.4 °C 1011.4 hPa SO 4.7 km/h 16.7 km/h 33% 0.0 mm
17:59 18.8 °C 2.5 °C 1011.2 hPa SSO 8.7 km/h 19 km/h 33.7% 0.0 mm
18:04 18.7 °C 2.5 °C 1011.2 hPa SSO 9.5 km/h 20.4 km/h 34% 0.0 mm
18:09 18.5 °C 2.3 °C 1011.2 hPa SSO 9.5 km/h 20.9 km/h 34% 0.0 mm
18:14 18.3 °C 2.3 °C 1011.0 hPa SSO 9.5 km/h 24.1 km/h 34.3% 0.0 mm
18:19 18.2 °C 2.5 °C 1011.0 hPa SSO 12.2 km/h 24.5 km/h 35% 0.0 mm
18:24 18 °C 2.3 °C 1011.0 hPa SSO 13 km/h 29.8 km/h 35% 0.0 mm
18:29 17.9 °C 2.3 °C 1011.0 hPa SSO 15.1 km/h 30.6 km/h 35.1% 0.0 mm
18:34 17.8 °C 2.5 °C 1011.0 hPa SSO 15.6 km/h 24.1 km/h 36% 0.0 mm
18:39 17.7 °C 2.4 °C 1011.1 hPa SO 14 km/h 22.5 km/h 36% 0.0 mm
18:44 17.6 °C 2.5 °C 1011.1 hPa SO 13.7 km/h 22.5 km/h 36.4% 0.0 mm
18:49 17.4 °C 2.6 °C 1011.1 hPa SO 13.2 km/h 22.5 km/h 37% 0.0 mm
18:54 17.3 °C 2.6 °C 1011.1 hPa SO 13 km/h 20.9 km/h 37.3% 0.0 mm
18:59 17.2 °C 2.7 °C 1011.1 hPa SO 13.6 km/h 20.9 km/h 38% 0.0 mm
19:04 17.1 °C 2.7 °C 1011.1 hPa SO 13.7 km/h 20.1 km/h 38% 0.0 mm
19:09 17 °C 2.8 °C 1011.1 hPa SSO 12.5 km/h 22.5 km/h 38.7% 0.0 mm
19:14 16.9 °C 2.8 °C 1010.9 hPa SSO 12.2 km/h 22.5 km/h 39% 0.0 mm
19:19 16.9 °C 2.8 °C 1010.9 hPa SSO 11.4 km/h 24.5 km/h 39% 0.0 mm
19:24 17 °C 3 °C 1010.9 hPa Sur 11.1 km/h 27.4 km/h 39.1% 0.0 mm
19:29 17.2 °C 3.1 °C 1010.9 hPa SSO 15.1 km/h 27.8 km/h 39% 0.0 mm
19:34 17.2 °C 3.1 °C 1010.9 hPa SSO 16.1 km/h 27.4 km/h 39% 0.0 mm
19:39 17.2 °C 3.1 °C 1010.9 hPa SSO 15.1 km/h 26.2 km/h 39% 0.0 mm
19:44 17.2 °C 3.3 °C 1010.7 hPa SSO 14.8 km/h 25.7 km/h 39.4% 0.0 mm
19:49 17.1 °C 3.4 °C 1010.7 hPa SSO 14.8 km/h 30.6 km/h 40% 0.0 mm
19:54 17.1 °C 3.4 °C 1010.9 hPa SSO 14.8 km/h 30.6 km/h 40% 0.0 mm
19:59 16.9 °C 3.3 °C 1010.9 hPa SSO 13.9 km/h 24.1 km/h 40.2% 0.0 mm
20:04 16.9 °C 3.5 °C 1010.9 hPa SSO 13.7 km/h 25.9 km/h 41% 0.0 mm
20:09 16.9 °C 3.5 °C 1010.9 hPa SSO 13.9 km/h 39.6 km/h 41% 0.0 mm
20:14 16.9 °C 3.6 °C 1010.8 hPa SSO 14 km/h 40.2 km/h 41% 0.0 mm
20:19 16.9 °C 3.7 °C 1010.8 hPa SSO 16 km/h 29 km/h 41.5% 0.0 mm
20:24 16.8 °C 3.8 °C 1010.8 hPa SSO 16.4 km/h 24.5 km/h 42% 0.0 mm
20:29 16.7 °C 3.9 °C 1010.8 hPa SSO 14.6 km/h 24.1 km/h 42.7% 0.0 mm
20:34 16.6 °C 3.9 °C 1010.8 hPa SSO 14 km/h 24.1 km/h 43% 0.0 mm
20:39 16.6 °C 4.2 °C 1010.8 hPa Sur 12.4 km/h 24.1 km/h 43.9% 0.0 mm
20:44 16.4 °C 4.1 °C 1010.6 hPa Sur 11.9 km/h 24.5 km/h 44% 0.0 mm
20:49 16.4 °C 4.2 °C 1010.6 hPa Sur 11.3 km/h 24.1 km/h 44.3% 0.0 mm
20:54 16.3 °C 4.3 °C 1010.6 hPa Sur 11.1 km/h 19.8 km/h 45% 0.0 mm
20:59 16.3 °C 4.3 °C 1010.3 hPa Sur 12 km/h 20.9 km/h 45% 0.0 mm
21:04 16.2 °C 4.4 °C 1010.3 hPa Sur 12.2 km/h 20.9 km/h 45.4% 0.0 mm
21:09 16.2 °C 4.6 °C 1010.3 hPa Sur 11.3 km/h 18.5 km/h 46% 0.0 mm
21:14 16.3 °C 4.6 °C 1010.2 hPa Sur 11.1 km/h 19.3 km/h 46% 0.0 mm
21:19 16.3 °C 4.9 °C 1010.2 hPa Sur 11.7 km/h 19.3 km/h 46.8% 0.0 mm
21:24 16.3 °C 5 °C 1010.2 hPa Sur 11.9 km/h 22.5 km/h 47% 0.0 mm
21:29 16.4 °C 5.2 °C 1010.1 hPa Sur 11.9 km/h 22.5 km/h 47.7% 0.0 mm
21:34 16.5 °C 5.5 °C 1010.1 hPa SSO 11.9 km/h 22.5 km/h 48% 0.0 mm
21:39 16.5 °C 5.4 °C 1010.1 hPa Sur 13.6 km/h 23.7 km/h 48% 0.0 mm
21:44 16.6 °C 5.8 °C 1009.9 hPa SSO 14 km/h 24.5 km/h 48.9% 0.0 mm
21:49 16.6 °C 5.8 °C 1009.9 hPa SSO 13.8 km/h 24.1 km/h 49% 0.0 mm
21:54 16.6 °C 5.8 °C 1009.9 hPa Sur 13.7 km/h 24.5 km/h 49% 0.0 mm
21:59 16.7 °C 5.9 °C 1009.8 hPa SSO 13.7 km/h 24.1 km/h 49% 0.0 mm
22:04 16.8 °C 6.3 °C 1009.8 hPa Sur 13.7 km/h 24.1 km/h 50% 0.0 mm
22:09 16.9 °C 6.4 °C 1009.8 hPa Sur 13.9 km/h 25.9 km/h 50% 0.0 mm
22:14 17.1 °C 6.3 °C 1009.7 hPa Sur 14 km/h 25.7 km/h 49.2% 0.0 mm
22:19 17.1 °C 6.4 °C 1009.7 hPa SSO 13.7 km/h 24.1 km/h 49.4% 0.0 mm
22:24 17.2 °C 6.4 °C 1009.7 hPa SSO 13.7 km/h 26.2 km/h 49% 0.0 mm
22:29 17.3 °C 6.7 °C 1009.7 hPa SSO 14.5 km/h 24.5 km/h 49.9% 0.0 mm
22:34 17.3 °C 6.7 °C 1009.7 hPa SSO 14.8 km/h 24.5 km/h 50% 0.0 mm
22:39 17.2 °C 6.7 °C 1009.7 hPa SSO 13.4 km/h 24.1 km/h 50% 0.0 mm
22:44 17.2 °C 6.6 °C 1009.5 hPa SSO 13 km/h 20.4 km/h 50% 0.0 mm
22:49 17.1 °C 6.8 °C 1009.5 hPa SSO 11.6 km/h 20.9 km/h 50.7% 0.0 mm
22:54 17.1 °C 6.9 °C 1009.5 hPa SSO 11.1 km/h 22.2 km/h 51% 0.0 mm
22:59 17.3 °C 7 °C 1009.2 hPa SSO 11.8 km/h 30.6 km/h 51% 0.0 mm
23:04 17.5 °C 7.2 °C 1009.2 hPa SSO 11.9 km/h 30.6 km/h 51% 0.0 mm
23:09 17.6 °C 7.2 °C 1009.2 hPa SSO 13.5 km/h 29 km/h 50.5% 0.0 mm
23:14 17.6 °C 7.3 °C 1009.1 hPa SSO 14 km/h 27.8 km/h 51% 0.0 mm
23:19 17.7 °C 7.2 °C 1009.1 hPa SSO 15.7 km/h 34.3 km/h 50.4% 0.0 mm
23:24 17.7 °C 7.3 °C 1009.1 hPa SSO 16.1 km/h 33.8 km/h 50.6% 0.0 mm
23:29 17.6 °C 7.3 °C 1008.8 hPa Sur 17.6 km/h 30.6 km/h 51% 0.0 mm
23:34 17.4 °C 7.2 °C 1008.8 hPa SSO 18 km/h 27.4 km/h 51.2% 0.0 mm
23:39 17.3 °C 7.3 °C 1008.8 hPa SSO 14.4 km/h 27.8 km/h 52% 0.0 mm
23:44 17.3 °C 7.3 °C 1008.6 hPa SSO 13.7 km/h 31.7 km/h 52% 0.0 mm
23:49 17.3 °C 7.5 °C 1008.6 hPa SSO 15.6 km/h 43.1 km/h 52.7% 0.0 mm
23:54 17.6 °C 7.6 °C 1008.6 hPa SSO 16.1 km/h 44.9 km/h 52.1% 0.0 mm
23:59 17.9 °C 7.7 °C 1008.2 hPa SSO 21.5 km/h 45.1 km/h 51.4% 0.0 mm
Murcia-Puente Tocinos, Espa?a
Compliments of Weather Underground - 3 mb

La estación de MeteoMurcia.com, publica sus datos en los siguientes proyectos:

Weather Underground PWS IMURCIAP2 Meteoclimatic www.awekas.at

W3Counter
Web Analytics